createdAt,value
2023-04-11T00:04:55.040Z,8.57
2023-04-11T00:09:59.257Z,7.65
2023-04-11T00:15:05.686Z,8.55
2023-04-11T00:20:12.931Z,8.63
2023-04-11T00:25:17.070Z,6.68
2023-04-11T00:30:22.874Z,7.43
2023-04-11T00:35:27.722Z,6.20
2023-04-11T00:40:32.055Z,6.70
2023-04-11T00:45:38.195Z,5.38
2023-04-11T00:50:43.767Z,4.82
2023-04-11T00:55:48.070Z,4.63
2023-04-11T01:00:55.460Z,4.47
2023-04-11T01:05:59.502Z,5.50
2023-04-11T01:11:04.250Z,5.07
2023-04-11T01:16:11.278Z,5.28
2023-04-11T01:21:16.967Z,5.28
2023-04-11T01:26:22.573Z,5.00
2023-04-11T01:31:27.354Z,5.47
2023-04-11T01:36:32.940Z,5.13
2023-04-11T01:41:39.258Z,5.75
2023-04-11T01:46:44.419Z,6.32
2023-04-11T01:51:48.672Z,4.63
2023-04-11T01:56:55.057Z,5.90
2023-04-11T02:01:59.329Z,5.28
2023-04-11T02:07:03.447Z,5.65
2023-04-11T02:12:10.661Z,5.10
2023-04-11T02:17:15.037Z,4.55
2023-04-11T02:22:19.279Z,6.40
2023-04-11T02:27:25.244Z,6.65
2023-04-11T02:32:31.732Z,6.47
2023-04-11T02:37:36.026Z,6.90
2023-04-11T02:42:43.706Z,6.80
2023-04-11T02:47:50.852Z,7.00
2023-04-11T02:52:55.324Z,7.75
2023-04-11T02:58:04.689Z,6.65
2023-04-11T03:03:08.902Z,6.43
2023-04-11T03:13:29.172Z,5.57
2023-04-11T03:18:33.250Z,6.78
2023-04-11T03:23:41.651Z,6.05
2023-04-11T03:28:47.270Z,7.18
2023-04-11T03:33:55.965Z,7.00
2023-04-11T03:39:00.616Z,7.93
2023-04-11T03:44:06.463Z,7.35
2023-04-11T03:49:10.886Z,7.05
2023-04-11T03:54:15.860Z,7.30
2023-04-11T03:59:21.824Z,7.85
2023-04-11T04:04:32.539Z,7.80
2023-04-11T04:09:47.006Z,10.07
2023-04-11T04:14:53.870Z,10.35
2023-04-11T04:19:58.300Z,11.98
2023-04-11T04:25:03.642Z,14.40
2023-04-11T04:30:15.936Z,11.18
2023-04-11T04:35:36.131Z,13.45
2023-04-11T04:40:42.363Z,8.38
2023-04-11T04:45:50.032Z,8.13
2023-04-11T04:51:00.483Z,9.35
2023-04-11T04:56:05.233Z,10.52
2023-04-11T05:01:16.763Z,11.98
2023-04-11T05:06:22.103Z,10.70
2023-04-11T05:11:27.543Z,9.82
2023-04-11T05:16:33.723Z,10.45
2023-04-11T05:21:39.990Z,10.95
2023-04-11T05:26:44.682Z,9.75
2023-04-11T05:31:56.053Z,10.95
2023-04-11T05:37:01.423Z,10.82
2023-04-11T05:42:07.965Z,11.82
2023-04-11T05:47:13.613Z,11.48
2023-04-11T05:52:17.673Z,13.50
2023-04-11T05:57:22.072Z,13.45
2023-04-11T06:02:28.048Z,10.70
2023-04-11T06:07:32.706Z,10.68
2023-04-11T06:12:37.397Z,9.57
2023-04-11T06:17:42.931Z,10.88
2023-04-11T06:22:54.415Z,9.90
2023-04-11T06:27:58.681Z,8.73
2023-04-11T06:33:04.765Z,11.40
2023-04-11T06:38:12.409Z,11.02
2023-04-11T06:43:16.535Z,10.55
2023-04-11T06:48:22.324Z,10.57
2023-04-11T06:53:27.133Z,9.45
2023-04-11T06:58:32.115Z,11.13
2023-04-11T07:03:38.167Z,9.02
2023-04-11T07:08:43.752Z,9.55
2023-04-11T07:13:47.882Z,9.52
2023-04-11T07:18:53.435Z,11.75
2023-04-11T07:23:57.596Z,10.98
2023-04-11T07:29:01.725Z,13.88
2023-04-11T07:34:07.540Z,13.18
2023-04-11T07:39:13.812Z,17.60
2023-04-11T07:44:18.326Z,12.20
2023-04-11T07:49:24.029Z,8.95
2023-04-11T07:54:28.608Z,9.52
2023-04-11T07:59:32.845Z,8.85
2023-04-11T08:04:39.212Z,8.77
2023-04-11T08:09:43.704Z,11.18
2023-04-11T08:14:48.029Z,11.48
2023-04-11T08:19:53.875Z,11.18
2023-04-11T08:24:58.438Z,14.38
2023-04-11T08:30:02.983Z,14.15
2023-04-11T08:35:09.598Z,14.25
2023-04-11T08:40:16.491Z,11.85
2023-04-11T08:45:20.621Z,12.98
2023-04-11T08:50:26.918Z,8.65
2023-04-11T08:55:31.548Z,13.38
2023-04-11T09:00:36.455Z,10.43
2023-04-11T09:05:45.563Z,9.13
2023-04-11T09:10:49.839Z,11.45
2023-04-11T09:16:11.513Z,8.57
2023-04-11T09:21:18.343Z,9.32
2023-04-11T09:26:28.856Z,7.93
2023-04-11T09:31:43.511Z,7.60
2023-04-11T09:36:55.935Z,8.32
2023-04-11T09:42:03.334Z,10.20
2023-04-11T09:47:07.830Z,10.80
2023-04-11T09:52:14.578Z,8.68
2023-04-11T09:57:25.206Z,6.20
2023-04-11T10:02:30.507Z,6.53
2023-04-11T10:07:40.640Z,8.43
2023-04-11T10:12:45.586Z,9.95
2023-04-11T10:18:09.207Z,6.32
2023-04-11T10:23:16.665Z,7.53
2023-04-11T10:28:35.847Z,6.45
2023-04-11T10:33:41.658Z,8.70
2023-04-11T10:38:52.730Z,8.73
2023-04-11T10:44:21.173Z,6.22
2023-04-11T10:49:36.694Z,4.97
2023-04-11T10:54:43.027Z,5.90
2023-04-11T11:00:00.671Z,5.95
2023-04-11T11:05:20.604Z,4.82
2023-04-11T11:15:50.773Z,6.15
2023-04-11T11:20:57.692Z,6.45
2023-04-11T11:26:03.317Z,6.88
2023-04-11T11:31:07.952Z,5.10
2023-04-11T11:36:13.696Z,5.32
2023-04-11T11:41:19.510Z,5.88
2023-04-11T11:46:24.003Z,7.25
2023-04-11T11:51:28.469Z,5.85
2023-04-11T11:56:34.061Z,6.28
2023-04-11T12:01:40.456Z,7.05
2023-04-11T12:06:46.080Z,5.45
2023-04-11T12:11:59.436Z,3.78
2023-04-11T12:17:05.401Z,4.95
2023-04-11T12:22:11.513Z,5.20
2023-04-11T12:27:17.116Z,7.00
2023-04-11T12:32:21.274Z,5.75
2023-04-11T12:37:25.424Z,5.90
2023-04-11T12:47:37.601Z,7.63
2023-04-11T12:52:41.988Z,9.32
2023-04-11T12:57:47.933Z,4.20
2023-04-11T13:02:53.553Z,4.28
2023-04-11T13:07:58.536Z,4.53
2023-04-11T13:13:15.409Z,4.38
2023-04-11T13:18:21.984Z,5.07
2023-04-11T13:23:27.637Z,4.50
2023-04-11T13:28:35.020Z,5.10
2023-04-11T13:33:40.791Z,4.97
2023-04-11T13:38:47.193Z,5.00
2023-04-11T13:43:53.671Z,5.18
2023-04-11T13:48:58.033Z,5.28
2023-04-11T13:54:02.394Z,6.13
2023-04-11T13:59:07.870Z,6.57
2023-04-11T14:04:13.625Z,5.75
2023-04-11T14:09:17.725Z,5.75
2023-04-11T14:14:23.134Z,6.13
2023-04-11T14:19:27.272Z,5.65
2023-04-11T14:24:31.812Z,5.72
2023-04-11T14:29:37.929Z,5.50
2023-04-11T14:34:42.995Z,5.68
2023-04-11T14:39:47.834Z,3.97
2023-04-11T14:44:53.743Z,5.82
2023-04-11T14:49:58.779Z,5.82
2023-04-11T14:55:03.154Z,5.32
2023-04-11T15:00:15.569Z,4.72
2023-04-11T15:05:21.112Z,4.90
2023-04-11T15:10:27.630Z,5.93
2023-04-11T15:15:33.881Z,5.63
2023-04-11T15:20:38.857Z,4.95
2023-04-11T15:25:43.023Z,6.25
2023-04-11T15:30:49.747Z,5.63
2023-04-11T15:35:59.112Z,7.57
2023-04-11T15:41:04.628Z,7.85
2023-04-11T15:46:10.930Z,4.60
2023-04-11T15:51:15.054Z,7.82
2023-04-11T15:56:20.132Z,7.43
2023-04-11T16:01:30.082Z,4.50
2023-04-11T16:06:34.232Z,5.63
2023-04-11T16:11:40.460Z,5.60
2023-04-11T16:16:50.775Z,5.40
2023-04-11T16:21:55.241Z,6.35
2023-04-11T16:27:00.035Z,5.78
2023-04-11T16:32:06.062Z,5.00
2023-04-11T16:37:10.315Z,4.88
2023-04-11T16:42:14.540Z,5.70
2023-04-11T16:47:20.669Z,5.75
2023-04-11T16:52:25.239Z,5.10
2023-04-11T16:57:29.353Z,6.25
2023-04-11T17:02:35.716Z,6.82
2023-04-11T17:07:42.273Z,5.43
2023-04-11T17:12:46.565Z,7.90
2023-04-11T17:17:54.916Z,8.45
2023-04-11T17:22:59.790Z,7.50
2023-04-11T17:28:05.867Z,6.68
2023-04-11T17:33:11.652Z,6.35
2023-04-11T17:38:18.013Z,5.72
2023-04-11T17:43:22.888Z,6.53
2023-04-11T17:48:29.028Z,6.22
2023-04-11T17:53:34.171Z,6.63
2023-04-11T17:58:42.568Z,7.22
2023-04-11T18:03:50.583Z,7.07
2023-04-11T18:08:55.015Z,6.28
2023-04-11T18:13:59.449Z,7.05
2023-04-11T18:19:05.766Z,7.72
2023-04-11T18:24:10.065Z,7.53
2023-04-11T18:29:14.699Z,8.27
2023-04-11T18:34:23.797Z,7.88
2023-04-11T18:39:29.403Z,7.47
2023-04-11T18:44:34.367Z,7.75
2023-04-11T18:49:41.136Z,6.70
2023-04-11T18:54:45.733Z,7.40
2023-04-11T18:59:51.732Z,7.20
2023-04-11T19:04:59.764Z,6.45
2023-04-11T19:10:03.859Z,8.45
2023-04-11T19:15:09.347Z,6.60
2023-04-11T19:20:16.797Z,6.53
2023-04-11T19:25:21.808Z,5.63
2023-04-11T19:30:26.279Z,6.72
2023-04-11T19:35:31.839Z,6.78
2023-04-11T19:40:36.200Z,6.15
2023-04-11T19:45:40.511Z,6.22
2023-04-11T19:50:46.302Z,5.28
2023-04-11T19:55:52.329Z,5.05
2023-04-11T20:00:56.709Z,5.85
2023-04-11T20:06:05.671Z,4.70
2023-04-11T20:11:09.919Z,5.68
2023-04-11T20:16:15.093Z,5.22
2023-04-11T20:21:20.630Z,5.43
2023-04-11T20:26:24.980Z,5.28
2023-04-11T20:31:29.189Z,5.20
2023-04-11T20:36:36.188Z,5.72
2023-04-11T20:41:42.006Z,5.03
2023-04-11T20:46:46.462Z,5.40
2023-04-11T20:51:54.629Z,4.60
2023-04-11T20:56:59.065Z,5.53
2023-04-11T21:02:04.157Z,4.78
2023-04-11T21:07:11.043Z,4.90
2023-04-11T21:12:15.747Z,4.70
2023-04-11T21:17:22.202Z,3.97
2023-04-11T21:22:30.193Z,4.80
2023-04-11T21:27:34.276Z,4.55
2023-04-11T21:32:41.004Z,3.67
2023-04-11T21:37:48.889Z,4.13
2023-04-11T21:42:53.331Z,4.28
2023-04-11T21:47:58.404Z,3.90
2023-04-11T21:53:04.242Z,4.10
2023-04-11T21:58:13.279Z,4.20
2023-04-11T22:03:28.999Z,4.30
2023-04-11T22:08:38.352Z,4.15
2023-04-11T22:13:46.716Z,3.75
2023-04-11T22:18:54.669Z,4.20
2023-04-11T22:24:02.484Z,3.63
2023-04-11T22:29:07.986Z,3.90
2023-04-11T22:34:12.268Z,3.65
2023-04-11T22:39:17.698Z,4.53
2023-04-11T22:44:22.018Z,4.97
2023-04-11T22:49:26.119Z,4.47
2023-04-11T22:54:31.715Z,4.10
2023-04-11T22:59:35.815Z,4.05
2023-04-11T23:04:40.443Z,4.07
2023-04-11T23:09:47.512Z,3.90
2023-04-11T23:14:53.256Z,4.43
2023-04-11T23:19:59.621Z,4.32
2023-04-11T23:25:06.993Z,4.40
2023-04-11T23:30:12.871Z,4.25
2023-04-11T23:35:19.462Z,3.70
2023-04-11T23:40:26.276Z,4.30
2023-04-11T23:45:30.902Z,3.63
2023-04-11T23:50:34.917Z,3.83
2023-04-11T23:55:41.870Z,3.88
